Time;durP1;ratioP1;P1;durP2;ratioP2;P2;SDS_P1;SDS_P2;PMS_P1;PMS_P2;Temp;Humidity;BMP_temperature;BMP_pressure;BME280_temperature;BME280_humidity;BME280_pressure;Samples;Min_cycle;Max_cycle;Signal;HPM_P1;HPM_P2
2022/09/15 00:01:09;;;;;;;4.70;2.27;;;20.80;99.90;;;;;;4992373;28;20225;-73
2022/09/15 00:03:36;;;;;;;5.63;2.40;;;20.80;99.90;;;;;;4975838;28;20209;-71
2022/09/15 00:06:02;;;;;;;8.27;2.57;;;20.70;99.90;;;;;;4975592;28;20188;-71
2022/09/15 00:08:29;;;;;;;7.37;2.70;;;20.70;99.90;;;;;;4993767;28;20277;-71
2022/09/15 00:11:05;;;;;;;4.43;2.70;;;20.70;99.90;;;;;;4992039;28;20571;-72
2022/09/15 00:13:33;;;;;;;6.67;2.67;;;20.70;99.90;;;;;;4993253;28;20247;-73
2022/09/15 00:16:00;;;;;;;9.80;3.00;;;20.70;99.90;;;;;;4988184;28;20186;-73
2022/09/15 00:18:26;;;;;;;6.17;2.70;;;20.70;99.90;;;;;;4995216;28;20205;-71
2022/09/15 00:20:54;;;;;;;8.23;3.43;;;20.60;99.90;;;;;;4994965;28;20196;-73
2022/09/15 00:23:20;;;;;;;5.97;2.70;;;20.60;99.90;;;;;;5010655;28;20220;-72
2022/09/15 00:25:50;;;;;;;7.53;3.10;;;20.60;99.90;;;;;;5005253;28;20197;-72
2022/09/15 00:28:19;;;;;;;6.47;3.00;;;20.60;99.90;;;;;;5012043;28;20204;-71
2022/09/15 00:30:53;;;;;;;6.53;2.90;;;20.70;99.90;;;;;;4994837;28;20185;-72
2022/09/15 00:33:23;;;;;;;4.70;2.60;;;20.70;99.90;;;;;;4995140;28;20181;-73
2022/09/15 00:35:52;;;;;;;4.67;2.70;;;20.60;99.90;;;;;;5012123;28;20189;-73
2022/09/15 00:38:19;;;;;;;6.80;3.27;;;20.60;99.90;;;;;;5012719;28;20189;-73
2022/09/15 00:40:54;;;;;;;5.27;3.00;;;20.60;99.90;;;;;;5012297;28;20205;-73
2022/09/15 00:43:47;;;;;;;5.60;3.20;;;20.60;99.90;;;;;;4993010;28;20220;-71
2022/09/15 00:46:16;;;;;;;6.20;2.93;;;20.60;99.90;;;;;;5002166;28;20193;-72
2022/09/15 00:48:55;;;;;;;8.73;2.97;;;20.60;99.90;;;;;;4975436;28;20185;-71
2022/09/15 00:51:35;;;;;;;6.70;2.73;;;20.50;99.90;;;;;;5002023;28;20189;-71
2022/09/15 00:54:09;;;;;;;6.30;2.63;;;20.50;99.90;;;;;;5005247;28;20189;-72
2022/09/15 00:56:41;;;;;;;6.20;2.70;;;20.50;99.90;;;;;;5000980;28;20189;-71
2022/09/15 00:59:17;;;;;;;6.13;3.13;;;20.50;99.90;;;;;;5007157;28;20200;-73
2022/09/15 01:01:48;;;;;;;5.90;2.73;;;20.40;99.90;;;;;;4993998;28;20200;-74
2022/09/15 01:04:15;;;;;;;7.87;2.97;;;20.50;99.90;;;;;;4993211;28;20247;-73
2022/09/15 01:06:49;;;;;;;6.17;2.90;;;20.50;99.90;;;;;;5010227;28;20199;-73
2022/09/15 01:09:36;;;;;;;7.57;3.00;;;20.50;99.90;;;;;;4977231;28;20192;-73
2022/09/15 01:12:03;;;;;;;5.23;3.13;;;20.60;99.90;;;;;;4990922;28;20178;-73
2022/09/15 01:14:30;;;;;;;5.83;3.03;;;20.50;99.90;;;;;;5005284;28;20208;-73
2022/09/15 01:17:11;;;;;;;4.30;2.90;;;20.50;99.90;;;;;;5011470;28;20177;-73
2022/09/15 01:20:12;;;;;;;5.50;2.80;;;20.50;99.90;;;;;;4993369;28;20205;-73
2022/09/15 01:23:12;;;;;;;6.23;3.17;;;20.60;99.90;;;;;;5010292;28;20212;-73
2022/09/15 01:26:43;;;;;;;8.70;3.20;;;20.70;99.90;;;;;;4989996;28;20205;-73
2022/09/15 01:29:42;;;;;;;7.60;2.87;;;20.70;99.90;;;;;;4971166;28;20204;-73
2022/09/15 01:33:04;;;;;;;8.07;3.43;;;20.80;99.90;;;;;;5011249;28;20188;-73
2022/09/15 01:36:12;;;;;;;5.23;2.90;;;20.80;99.90;;;;;;5009718;28;20597;-73
2022/09/15 01:39:14;;;;;;;6.07;2.93;;;20.60;99.90;;;;;;4993482;28;20254;-73
2022/09/15 01:42:00;;;;;;;5.27;3.00;;;20.60;99.90;;;;;;5009763;28;20197;-73
2022/09/15 01:44:47;;;;;;;6.10;2.93;;;20.50;99.90;;;;;;5006646;28;20669;-73
2022/09/15 01:47:18;;;;;;;6.10;2.67;;;20.50;99.90;;;;;;4993352;28;20196;-73
2022/09/15 01:50:08;;;;;;;6.00;2.90;;;20.40;99.90;;;;;;4993385;28;20189;-72
2022/09/15 01:52:36;;;;;;;9.03;2.90;;;20.50;99.90;;;;;;4992939;28;20288;-72
2022/09/15 01:55:15;;;;;;;5.50;2.93;;;20.30;99.90;;;;;;4995052;28;20232;-73
2022/09/15 01:57:42;;;;;;;4.20;2.90;;;20.40;99.90;;;;;;4978494;28;20724;-73
2022/09/15 02:00:09;;;;;;;6.23;2.83;;;20.40;99.90;;;;;;4992211;28;20173;-73
2022/09/15 02:02:43;;;;;;;5.40;2.67;;;20.50;99.90;;;;;;4973522;28;20232;-73
2022/09/15 02:05:43;;;;;;;4.80;2.90;;;20.50;99.90;;;;;;4973267;28;20535;-73
2022/09/15 02:09:01;;;;;;;6.30;2.87;;;20.60;99.90;;;;;;4975400;28;20243;-73
2022/09/15 02:11:29;;;;;;;6.27;3.30;;;20.50;99.90;;;;;;4982628;28;20276;-73
2022/09/15 02:14:16;;;;;;;8.63;3.10;;;20.40;99.90;;;;;;4974879;28;20193;-73
2022/09/15 02:16:49;;;;;;;6.83;3.13;;;20.30;99.90;;;;;;4976296;28;20185;-73
2022/09/15 02:19:43;;;;;;;7.83;2.97;;;20.40;99.90;;;;;;4982463;28;20185;-72
2022/09/15 02:22:22;;;;;;;9.37;3.30;;;20.40;99.90;;;;;;4972226;28;20200;-73
2022/09/15 02:25:17;;;;;;;5.40;3.20;;;20.40;99.90;;;;;;4974502;28;20201;-73
2022/09/15 02:27:51;;;;;;;7.37;2.70;;;20.40;99.90;;;;;;4977754;28;20689;-73
2022/09/15 02:30:20;;;;;;;5.47;2.80;;;20.30;99.90;;;;;;4973337;28;20258;-73
2022/09/15 02:32:56;;;;;;;4.70;2.50;;;20.30;99.90;;;;;;4992298;28;20186;-73
2022/09/15 02:35:27;;;;;;;9.83;2.87;;;20.30;99.90;;;;;;4973655;28;20192;-73
2022/09/15 02:37:55;;;;;;;4.03;2.97;;;20.10;99.90;;;;;;4973818;28;20280;-73
2022/09/15 02:40:22;;;;;;;4.03;2.60;;;20.20;99.90;;;;;;4973480;28;20287;-73
2022/09/15 02:42:57;;;;;;;6.10;3.00;;;20.20;99.90;;;;;;5009181;28;20212;-73
2022/09/15 02:45:25;;;;;;;6.97;3.03;;;20.20;99.90;;;;;;4972872;28;20227;-73
2022/09/15 02:47:51;;;;;;;7.30;2.87;;;20.10;99.90;;;;;;5014241;28;20181;-73
2022/09/15 02:50:19;;;;;;;6.13;3.10;;;20.10;99.90;;;;;;4992556;28;20249;-73
2022/09/15 02:52:45;;;;;;;4.50;2.83;;;20.10;99.90;;;;;;4996855;28;20646;-73
2022/09/15 02:55:12;;;;;;;5.80;2.97;;;20.10;99.90;;;;;;5012901;28;21042;-73
2022/09/15 02:57:38;;;;;;;4.60;2.80;;;20.00;99.90;;;;;;4996675;28;20251;-73
2022/09/15 03:00:14;;;;;;;5.07;2.80;;;20.10;99.90;;;;;;5006909;28;20250;-73
2022/09/15 03:02:52;;;;;;;3.67;2.60;;;20.10;99.90;;;;;;4968697;28;20236;-73
2022/09/15 03:05:23;;;;;;;5.43;2.60;;;20.00;99.90;;;;;;4993030;28;20184;-73
2022/09/15 03:07:50;;;;;;;4.23;2.60;;;19.90;99.90;;;;;;4987831;28;20185;-73
2022/09/15 03:10:17;;;;;;;4.43;2.73;;;19.90;99.90;;;;;;5011395;28;20754;-73
2022/09/15 03:12:50;;;;;;;5.80;2.37;;;19.90;99.90;;;;;;5013054;28;20192;-73
2022/09/15 03:15:21;;;;;;;4.77;2.60;;;19.80;99.90;;;;;;4996920;28;20185;-73
2022/09/15 03:17:48;;;;;;;6.27;3.20;;;19.90;99.90;;;;;;5014046;28;20277;-73
2022/09/15 03:20:20;;;;;;;4.83;2.43;;;19.90;99.90;;;;;;4994913;28;20223;-73
2022/09/15 03:22:47;;;;;;;6.77;2.90;;;20.00;99.90;;;;;;4977170;28;20217;-73
2022/09/15 03:25:14;;;;;;;7.30;3.00;;;20.00;99.90;;;;;;4981503;28;20201;-73
2022/09/15 03:27:41;;;;;;;6.63;3.33;;;20.10;99.90;;;;;;4994056;28;20182;-73
2022/09/15 03:30:10;;;;;;;9.87;3.67;;;20.20;99.90;;;;;;5000180;28;20674;-73
2022/09/15 03:32:40;;;;;;;6.57;3.50;;;20.20;99.90;;;;;;4963920;28;20221;-72
2022/09/15 03:35:07;;;;;;;9.53;3.80;;;20.30;99.90;;;;;;5009965;28;20220;-73
2022/09/15 03:37:37;;;;;;;9.20;3.97;;;20.30;99.90;;;;;;5012554;28;20200;-73
2022/09/15 03:40:09;;;;;;;7.27;3.77;;;20.40;99.90;;;;;;5003713;28;20220;-73
2022/09/15 03:42:35;;;;;;;10.90;4.47;;;20.40;99.90;;;;;;4976093;28;20221;-73
2022/09/15 03:45:02;;;;;;;10.53;4.13;;;20.40;99.90;;;;;;4986598;28;20216;-73
2022/09/15 03:47:28;;;;;;;14.73;4.63;;;20.40;99.90;;;;;;4998863;28;20264;-73
2022/09/15 03:49:55;;;;;;;13.27;4.90;;;20.40;99.90;;;;;;4979316;28;20189;-73
2022/09/15 03:52:22;;;;;;;11.57;4.90;;;20.50;99.90;;;;;;5009006;28;20615;-73
2022/09/15 03:54:48;;;;;;;10.07;4.60;;;20.50;99.90;;;;;;4993640;28;20185;-73
2022/09/15 03:57:15;;;;;;;11.33;4.93;;;20.60;99.90;;;;;;4992589;28;20190;-73
2022/09/15 03:59:41;;;;;;;14.77;4.33;;;20.60;99.90;;;;;;5003737;28;20283;-73
2022/09/15 04:02:07;;;;;;;8.83;3.97;;;20.60;99.90;;;;;;5003992;28;20213;-73
2022/09/15 04:04:34;;;;;;;7.13;3.77;;;20.60;99.90;;;;;;4992364;28;20269;-73
2022/09/15 04:07:00;;;;;;;8.27;3.53;;;20.60;99.90;;;;;;4990486;28;20200;-73
2022/09/15 04:09:26;;;;;;;10.17;3.50;;;20.60;99.90;;;;;;4994312;28;20196;-73
2022/09/15 04:11:53;;;;;;;9.97;3.90;;;20.50;99.90;;;;;;4998094;28;20235;-73
2022/09/15 04:14:19;;;;;;;9.83;3.80;;;20.50;99.90;;;;;;4998691;28;20594;-73
2022/09/15 04:16:46;;;;;;;13.67;4.20;;;20.50;99.90;;;;;;4992699;28;20197;-73
2022/09/15 04:19:12;;;;;;;7.10;3.17;;;20.50;99.90;;;;;;4994875;28;20185;-73
2022/09/15 04:21:38;;;;;;;5.17;2.77;;;20.50;99.90;;;;;;4995134;28;20228;-73
2022/09/15 04:24:05;;;;;;;5.77;3.10;;;20.40;99.90;;;;;;4978407;28;20278;-73
2022/09/15 04:26:36;;;;;;;7.20;3.37;;;20.40;99.90;;;;;;4992627;28;20204;-73
2022/09/15 04:29:10;;;;;;;7.57;3.10;;;20.40;99.90;;;;;;4975280;28;20525;-73
2022/09/15 04:31:36;;;;;;;7.47;3.10;;;20.30;99.90;;;;;;4975943;28;20212;-73
2022/09/15 04:34:02;;;;;;;3.60;2.97;;;20.30;99.90;;;;;;5006959;28;20193;-73
2022/09/15 04:36:30;;;;;;;6.77;3.10;;;20.30;99.90;;;;;;4994340;28;20216;-73
2022/09/15 04:38:57;;;;;;;3.57;2.77;;;20.30;99.90;;;;;;4991563;28;20268;-73
2022/09/15 04:41:25;;;;;;;3.80;3.10;;;20.40;99.90;;;;;;4963848;28;20191;-73
2022/09/15 04:43:51;;;;;;;4.87;2.70;;;20.40;99.90;;;;;;4990588;28;20296;-73
2022/09/15 04:46:19;;;;;;;5.60;3.00;;;20.50;99.90;;;;;;4987344;28;20186;-73
2022/09/15 04:48:47;;;;;;;6.87;2.73;;;20.60;99.90;;;;;;4962240;28;20871;-73
2022/09/15 04:51:19;;;;;;;5.53;2.70;;;20.70;99.90;;;;;;4994551;28;20219;-73
2022/09/15 04:53:46;;;;;;;5.20;3.13;;;20.80;99.90;;;;;;5011074;28;20199;-73
2022/09/15 04:56:19;;;;;;;6.57;2.53;;;20.80;99.90;;;;;;4994293;28;20208;-73
2022/09/15 04:58:58;;;;;;;4.77;2.73;;;20.90;99.90;;;;;;4994224;28;20540;-73
2022/09/15 05:01:28;;;;;;;5.67;3.03;;;21.00;99.90;;;;;;5000174;28;20678;-73
2022/09/15 05:03:56;;;;;;;5.57;2.87;;;21.10;99.90;;;;;;4987146;28;20224;-73
2022/09/15 05:06:26;;;;;;;5.93;2.67;;;21.20;99.90;;;;;;4995435;28;20219;-72
2022/09/15 05:08:57;;;;;;;3.57;2.57;;;21.20;99.90;;;;;;4974480;28;20185;-72
2022/09/15 05:11:25;;;;;;;6.13;2.77;;;21.20;99.90;;;;;;4974824;28;20200;-72
2022/09/15 05:13:51;;;;;;;7.47;3.10;;;21.30;99.90;;;;;;4990940;28;20194;-72
2022/09/15 05:16:23;;;;;;;6.53;2.97;;;21.30;99.90;;;;;;4991206;28;20227;-72
2022/09/15 05:18:53;;;;;;;9.00;3.10;;;21.30;99.90;;;;;;4974586;28;20197;-72
2022/09/15 05:21:22;;;;;;;4.63;3.10;;;21.40;99.90;;;;;;4999751;28;20240;-72
2022/09/15 05:23:52;;;;;;;5.37;3.07;;;21.50;99.90;;;;;;4977463;28;20267;-73
2022/09/15 05:26:26;;;;;;;6.93;2.97;;;21.70;99.90;;;;;;4990288;28;20192;-72
2022/09/15 05:28:52;;;;;;;3.67;2.87;;;21.90;99.90;;;;;;4974341;28;20193;-72
2022/09/15 05:31:26;;;;;;;4.33;3.07;;;21.90;99.90;;;;;;4958297;28;20268;-73
2022/09/15 05:33:53;;;;;;;7.10;3.08;;;22.10;99.90;;;;;;5001793;28;20227;-72
2022/09/15 05:36:23;;;;;;;10.77;3.30;;;22.20;99.90;;;;;;4990350;28;20284;-72
2022/09/15 05:38:52;;;;;;;6.25;3.15;;;22.40;99.90;;;;;;4993382;28;20191;-72
2022/09/15 05:41:19;;;;;;;5.60;2.75;;;22.40;99.90;;;;;;5010002;28;20630;-72
2022/09/15 05:43:49;;;;;;;4.97;3.27;;;22.40;99.90;;;;;;5004903;28;20240;-72
2022/09/15 05:46:17;;;;;;;8.68;3.22;;;22.50;99.90;;;;;;4977033;28;20185;-73
2022/09/15 05:48:45;;;;;;;5.63;2.80;;;22.50;99.90;;;;;;4993411;28;20188;-72
2022/09/15 05:51:14;;;;;;;9.25;3.15;;;22.50;99.90;;;;;;4993391;28;20917;-72
2022/09/15 05:53:41;;;;;;;8.60;3.40;;;22.70;99.90;;;;;;4993145;28;20196;-72
2022/09/15 05:56:11;;;;;;;12.45;3.58;;;23.00;99.90;;;;;;4993103;28;20255;-73
2022/09/15 05:58:43;;;;;;;9.95;3.28;;;23.10;99.90;;;;;;5010960;28;20282;-72
2022/09/15 06:01:29;;;;;;;4.80;3.13;;;23.10;99.90;;;;;;4976697;28;20184;-73
2022/09/15 06:03:57;;;;;;;8.18;3.50;;;23.10;99.90;;;;;;4991053;28;20622;-73
2022/09/15 06:06:25;;;;;;;8.13;3.63;;;23.30;99.90;;;;;;4988948;28;20208;-73
2022/09/15 06:08:56;;;;;;;5.38;3.00;;;23.40;99.90;;;;;;5009517;28;20199;-72
2022/09/15 06:11:29;;;;;;;8.23;3.17;;;23.50;99.90;;;;;;5010374;28;20219;-72
2022/09/15 06:13:59;;;;;;;7.57;3.35;;;23.40;99.90;;;;;;5009183;28;20177;-72
2022/09/15 06:16:25;;;;;;;5.65;3.17;;;23.50;99.90;;;;;;5010454;28;20216;-72
2022/09/15 06:18:53;;;;;;;6.95;3.38;;;23.50;99.90;;;;;;5008812;28;20199;-72
2022/09/15 06:21:22;;;;;;;11.73;4.10;;;23.50;99.90;;;;;;5008573;28;20188;-72
2022/09/15 06:24:02;;;;;;;5.82;3.05;;;23.50;99.90;;;;;;4992206;28;20637;-73
2022/09/15 06:26:29;;;;;;;6.35;3.40;;;23.60;99.90;;;;;;4988296;28;20200;-72
2022/09/15 06:28:59;;;;;;;8.95;3.22;;;23.60;99.90;;;;;;4957173;28;20177;-72
2022/09/15 06:31:30;;;;;;;8.88;3.65;;;23.70;99.90;;;;;;4973083;28;20240;-72
2022/09/15 06:33:57;;;;;;;8.02;3.75;;;23.70;99.90;;;;;;4989421;28;20705;-72
2022/09/15 06:36:28;;;;;;;8.65;3.60;;;23.80;99.90;;;;;;4970091;28;20224;-72
2022/09/15 06:38:54;;;;;;;10.50;4.22;;;23.80;99.90;;;;;;4993659;28;20546;-72
2022/09/15 06:41:23;;;;;;;9.00;3.83;;;23.80;99.90;;;;;;5010449;28;20181;-72
2022/09/15 06:43:49;;;;;;;11.75;3.70;;;23.90;99.90;;;;;;4971112;28;20220;-72
2022/09/15 06:46:20;;;;;;;8.93;3.50;;;23.90;99.90;;;;;;4982165;28;20221;-72
2022/09/15 06:48:47;;;;;;;8.82;3.20;;;24.10;99.90;;;;;;4972125;28;20208;-72
2022/09/15 06:51:15;;;;;;;8.25;3.20;;;24.10;99.90;;;;;;4989200;28;20188;-72
2022/09/15 06:53:42;;;;;;;9.60;3.38;;;24.20;99.90;;;;;;4992285;28;20197;-73
2022/09/15 06:56:13;;;;;;;11.23;3.35;;;24.40;99.90;;;;;;5011339;28;20706;-72
2022/09/15 06:58:42;;;;;;;10.13;2.75;;;24.50;99.90;;;;;;4978343;28;20699;-72
2022/09/15 07:01:21;;;;;;;5.28;2.95;;;24.50;99.90;;;;;;4970041;28;20189;-72
2022/09/15 07:03:48;;;;;;;5.22;3.15;;;24.60;99.90;;;;;;5002144;28;20212;-72
2022/09/15 07:06:15;;;;;;;10.90;3.47;;;24.70;99.90;;;;;;4974699;28;20190;-72
2022/09/15 07:08:41;;;;;;;5.68;3.13;;;24.70;99.90;;;;;;4995396;28;20185;-72
2022/09/15 07:11:09;;;;;;;11.93;3.22;;;24.80;99.90;;;;;;4995075;28;20702;-72
2022/09/15 07:13:36;;;;;;;8.68;2.80;;;24.80;99.90;;;;;;4990122;28;20348;-72
2022/09/15 07:16:06;;;;;;;10.88;3.40;;;24.90;99.90;;;;;;4996660;28;20193;-72
2022/09/15 07:18:33;;;;;;;7.57;3.40;;;25.10;99.90;;;;;;4973788;28;20544;-72
2022/09/15 07:21:04;;;;;;;9.05;2.97;;;25.20;99.90;;;;;;4997295;28;20219;-72
2022/09/15 07:23:33;;;;;;;11.65;3.80;;;25.20;99.90;;;;;;4977572;28;20206;-73
2022/09/15 07:26:14;;;;;;;7.70;3.25;;;25.30;99.90;;;;;;5005717;28;20188;-72
2022/09/15 07:28:44;;;;;;;10.10;3.30;;;25.40;99.90;;;;;;5007782;28;20192;-72
2022/09/15 07:31:15;;;;;;;11.65;3.92;;;25.40;99.90;;;;;;5008206;28;20264;-72
2022/09/15 07:33:47;;;;;;;11.60;3.78;;;25.50;99.90;;;;;;5011986;28;20581;-72
2022/09/15 07:36:14;;;;;;;9.50;3.60;;;25.50;99.90;;;;;;5010730;28;20191;-72
2022/09/15 07:38:45;;;;;;;7.07;3.22;;;25.60;99.90;;;;;;4990106;28;20243;-73
2022/09/15 07:41:21;;;;;;;12.68;3.72;;;25.50;99.90;;;;;;4995558;28;20184;-72
2022/09/15 07:43:51;;;;;;;9.38;3.20;;;25.50;99.90;;;;;;5011573;28;20220;-73
2022/09/15 07:46:21;;;;;;;14.65;3.65;;;25.60;99.90;;;;;;5011529;28;20188;-73
2022/09/15 07:48:51;;;;;;;10.38;4.10;;;25.60;99.90;;;;;;5007586;28;20185;-73
2022/09/15 07:51:19;;;;;;;7.97;3.50;;;25.70;99.90;;;;;;5000634;28;20195;-73
2022/09/15 07:53:47;;;;;;;8.70;3.30;;;25.70;99.90;;;;;;5011015;28;20188;-73
2022/09/15 07:56:17;;;;;;;12.40;3.80;;;25.80;99.90;;;;;;5006268;28;20189;-73
2022/09/15 07:58:47;;;;;;;8.45;3.63;;;25.80;99.90;;;;;;4994512;28;20272;-72
2022/09/15 08:01:15;;;;;;;13.88;3.60;;;25.90;99.90;;;;;;4992313;28;20198;-73
2022/09/15 08:03:48;;;;;;;8.85;3.35;;;26.00;99.90;;;;;;4978475;28;20310;-73
2022/09/15 08:06:17;;;;;;;9.50;3.17;;;26.00;99.90;;;;;;5010875;28;20247;-73
2022/09/15 08:08:44;;;;;;;6.95;2.92;;;26.10;99.90;;;;;;5003303;28;20689;-73
2022/09/15 08:11:17;;;;;;;10.30;3.15;;;26.10;99.90;;;;;;4991466;28;20828;-73
2022/09/15 08:13:45;;;;;;;7.20;3.47;;;26.20;99.90;;;;;;5006366;28;20217;-73
2022/09/15 08:16:16;;;;;;;9.93;3.40;;;26.30;99.90;;;;;;4980435;28;20313;-72
2022/09/15 08:18:44;;;;;;;18.60;3.22;;;26.40;99.90;;;;;;4994260;28;20821;-73
2022/09/15 08:21:16;;;;;;;7.72;3.22;;;26.40;99.90;;;;;;4997929;28;20251;-72
2022/09/15 08:23:42;;;;;;;10.63;3.25;;;26.50;99.90;;;;;;4992702;28;20300;-73
2022/09/15 08:26:11;;;;;;;5.80;2.85;;;26.60;99.90;;;;;;4977632;28;20184;-72
2022/09/15 08:28:39;;;;;;;11.75;2.95;;;26.60;99.90;;;;;;4992073;28;20187;-73
2022/09/15 08:31:10;;;;;;;10.98;3.10;;;26.70;99.90;;;;;;5007899;28;20170;-72
2022/09/15 08:33:36;;;;;;;5.95;3.05;;;26.60;99.90;;;;;;4990453;28;20190;-72
2022/09/15 08:36:10;;;;;;;5.90;2.83;;;26.70;99.90;;;;;;4990669;28;20192;-71
2022/09/15 08:38:39;;;;;;;10.18;2.83;;;26.80;99.90;;;;;;4975318;28;20636;-72
2022/09/15 08:41:27;;;;;;;6.20;3.08;;;26.70;99.90;;;;;;5007449;28;20195;-72
2022/09/15 08:44:25;;;;;;;9.77;2.70;;;26.80;99.90;;;;;;4993562;28;20259;-72
2022/09/15 08:47:28;;;;;;;11.43;2.83;;;26.80;99.90;;;;;;4984529;28;20670;-68
2022/09/15 08:50:04;;;;;;;9.10;2.67;;;27.00;99.90;;;;;;4990730;28;20231;-69
2022/09/15 08:53:21;;;;;;;8.00;2.60;;;26.90;99.90;;;;;;4993644;28;20247;-69
2022/09/15 08:55:57;;;;;;;12.57;3.38;;;27.00;99.90;;;;;;4993528;28;20246;-70
2022/09/15 08:58:36;;;;;;;7.97;2.97;;;27.10;99.90;;;;;;4997853;28;20192;-70
2022/09/15 09:01:02;;;;;;;12.10;3.08;;;27.10;99.90;;;;;;5010700;28;20184;-69
2022/09/15 09:03:53;;;;;;;8.63;3.08;;;27.30;99.90;;;;;;5013102;28;20212;-69
2022/09/15 09:06:47;;;;;;;8.95;2.75;;;27.40;99.90;;;;;;4961349;28;20195;-72
2022/09/15 09:09:59;;;;;;;8.15;3.13;;;27.50;99.90;;;;;;5012033;28;20223;-71
2022/09/15 09:12:51;;;;;;;9.82;3.05;;;27.60;99.90;;;;;;4999551;28;20204;-69
2022/09/15 09:15:47;;;;;;;8.38;2.80;;;27.60;99.90;;;;;;5013580;28;20193;-69
2022/09/15 09:18:47;;;;;;;13.30;2.90;;;27.80;99.90;;;;;;4987590;28;20196;-71
2022/09/15 09:21:25;;;;;;;7.63;3.10;;;27.90;99.90;;;;;;5000617;28;20220;-70
2022/09/15 09:24:30;;;;;;;10.50;2.70;;;28.00;99.90;;;;;;5002338;28;20232;-70
2022/09/15 09:26:58;;;;;;;6.97;2.47;;;28.00;99.90;;;;;;4969969;28;20211;-69
2022/09/15 09:29:38;;;;;;;11.68;3.67;;;28.20;99.90;;;;;;4985593;28;20532;-69
2022/09/15 09:32:26;;;;;;;11.05;3.13;;;28.40;99.90;;;;;;5007862;28;20185;-69
2022/09/15 09:35:15;;;;;;;9.07;2.97;;;28.50;99.90;;;;;;4991345;28;20177;-70
2022/09/15 09:37:42;;;;;;;12.70;2.90;;;28.50;99.90;;;;;;4999762;28;20212;-70
2022/09/15 09:40:14;;;;;;;10.85;2.88;;;28.80;99.90;;;;;;5005494;28;20313;-70
2022/09/15 09:42:44;;;;;;;9.27;2.80;;;28.80;99.90;;;;;;4996141;28;20212;-69
2022/09/15 09:45:17;;;;;;;9.38;2.90;;;29.10;99.90;;;;;;5010066;28;20200;-70
2022/09/15 09:47:45;;;;;;;9.23;2.72;;;29.40;99.90;;;;;;5011669;28;20177;-70
2022/09/15 09:50:31;;;;;;;6.78;2.60;;;29.60;99.90;;;;;;5002336;28;20235;-70
2022/09/15 09:52:58;;;;;;;6.55;2.80;;;30.00;99.90;;;;;;4988427;28;20200;-73
2022/09/15 09:55:27;;;;;;;7.75;2.60;;;31.80;99.90;;;;;;4976757;28;20268;-72
2022/09/15 09:58:11;;;;;;;6.18;2.55;;;33.40;99.90;;;;;;4976464;28;20189;-72
2022/09/15 10:00:39;;;;;;;6.38;2.67;;;33.00;99.90;;;;;;5011031;28;20176;-72
2022/09/15 10:03:20;;;;;;;11.15;3.28;;;31.80;99.90;;;;;;5021204;28;20204;-72
2022/09/15 10:06:16;;;;;;;6.88;2.63;;;31.30;99.90;;;;;;5009799;28;20258;-73
2022/09/15 10:09:02;;;;;;;5.72;2.75;;;30.70;99.90;;;;;;4980507;28;20211;-72
2022/09/15 10:11:55;;;;;;;8.02;2.70;;;30.40;99.90;;;;;;5008958;28;20192;-71
2022/09/15 10:14:34;;;;;;;7.15;2.70;;;30.50;99.90;;;;;;5003573;28;20188;-72
2022/09/15 10:17:18;;;;;;;6.63;2.63;;;31.90;99.90;;;;;;5007042;28;20183;-73
2022/09/15 10:19:57;;;;;;;10.35;2.60;;;31.70;99.90;;;;;;5004968;28;20255;-72
2022/09/15 10:22:39;;;;;;;9.90;2.47;;;32.20;99.90;;;;;;4994576;28;20214;-73
2022/09/15 10:25:25;;;;;;;6.32;2.35;;;32.90;99.90;;;;;;4973360;28;20188;-72
2022/09/15 10:28:15;;;;;;;7.47;2.72;;;31.70;99.90;;;;;;4988688;28;20566;-69
2022/09/15 10:31:27;;;;;;;8.65;2.60;;;30.90;99.90;;;;;;5008149;28;20219;-71
2022/09/15 10:33:53;;;;;;;11.50;2.90;;;30.30;99.90;;;;;;4990975;28;20196;-71
2022/09/15 10:36:31;;;;;;;5.18;2.30;;;29.90;99.90;;;;;;5009463;28;20284;-71
2022/09/15 10:39:30;;;;;;;11.13;3.00;;;29.70;99.90;;;;;;4999408;28;20189;-71
2022/09/15 10:42:17;;;;;;;7.47;2.67;;;29.80;99.90;;;;;;4982621;28;20637;-71
2022/09/15 10:44:58;;;;;;;6.43;2.50;;;29.80;99.90;;;;;;5003493;28;20850;-70
2022/09/15 10:48:01;;;;;;;7.38;2.60;;;29.60;99.90;;;;;;4995158;28;20195;-71
2022/09/15 10:50:49;;;;;;;6.65;3.00;;;29.60;99.90;;;;;;4998448;28;20183;-71
2022/09/15 10:53:55;;;;;;;10.07;2.70;;;29.70;99.90;;;;;;5007468;28;20275;-71
2022/09/15 10:56:37;;;;;;;4.30;2.25;;;29.80;99.90;;;;;;5007262;28;21163;-73
2022/09/15 10:59:31;;;;;;;6.40;2.58;;;29.60;99.90;;;;;;4988087;28;20550;-72
2022/09/15 11:02:40;;;;;;;10.10;2.65;;;29.60;99.90;;;;;;4994748;28;20234;-72
2022/09/15 11:05:22;;;;;;;6.63;2.35;;;29.70;99.90;;;;;;5007110;28;20204;-72
2022/09/15 11:08:17;;;;;;;6.07;2.63;;;29.70;99.90;;;;;;4997806;28;20276;-72
2022/09/15 11:11:21;;;;;;;4.20;2.17;;;29.70;99.90;;;;;;5014005;28;20298;-72
2022/09/15 11:14:03;;;;;;;4.75;2.42;;;29.70;99.90;;;;;;5012926;28;20191;-72
2022/09/15 11:17:05;;;;;;;6.15;2.70;;;29.70;99.90;;;;;;5007883;28;20574;-72
2022/09/15 11:20:17;;;;;;;5.53;2.35;;;29.60;99.90;;;;;;4987175;28;20252;-72
2022/09/15 11:22:59;;;;;;;4.55;2.33;;;29.50;99.90;;;;;;4978041;28;20283;-72
2022/09/15 11:25:32;;;;;;;7.30;2.28;;;29.40;99.90;;;;;;4987751;28;20269;-74
2022/09/15 11:28:27;;;;;;;5.32;2.17;;;29.40;99.90;;;;;;4996889;28;20226;-73
2022/09/15 11:31:35;;;;;;;9.00;2.97;;;29.50;99.90;;;;;;5001266;28;20180;-73
2022/09/15 11:34:20;;;;;;;8.73;2.60;;;29.60;99.90;;;;;;4993431;28;20242;-72
2022/09/15 11:36:55;;;;;;;22.20;2.90;;;29.50;99.90;;;;;;4995973;28;20232;-72
2022/09/15 11:39:29;;;;;;;11.02;2.50;;;29.40;99.90;;;;;;4995424;28;20289;-72
2022/09/15 11:42:12;;;;;;;6.95;2.40;;;29.40;99.90;;;;;;5006886;28;20287;-72
2022/09/15 11:44:45;;;;;;;11.48;2.40;;;29.50;99.90;;;;;;5007624;28;20211;-72
2022/09/15 11:47:41;;;;;;;10.18;2.45;;;29.50;99.90;;;;;;4975120;28;20221;-72
2022/09/15 11:50:18;;;;;;;8.27;2.67;;;29.40;99.90;;;;;;4984885;28;20190;-72
2022/09/15 11:53:18;;;;;;;9.27;2.70;;;29.40;99.90;;;;;;5000850;28;20199;-70
2022/09/15 11:56:25;;;;;;;9.20;2.53;;;29.50;99.90;;;;;;4990701;28;20659;-70
2022/09/15 11:59:37;;;;;;;8.88;2.70;;;29.40;99.90;;;;;;4998791;28;20223;-71
2022/09/15 12:02:29;;;;;;;9.23;2.47;;;29.40;99.90;;;;;;5002948;28;20609;-73
2022/09/15 12:05:10;;;;;;;8.23;2.70;;;29.20;99.90;;;;;;5005405;28;20192;-73
2022/09/15 12:08:05;;;;;;;118.95;6.97;;;29.10;99.90;;;;;;5004114;28;20286;-71
2022/09/15 12:10:43;;;;;;;226.63;14.32;;;29.10;99.90;;;;;;5029307;28;20275;-73
2022/09/15 12:13:22;;;;;;;290.85;17.88;;;29.40;99.90;;;;;;5026275;28;20176;-73
2022/09/15 12:15:51;;;;;;;15.40;3.20;;;29.30;99.90;;;;;;4989978;28;20931;-76
2022/09/15 12:18:30;;;;;;;16.70;3.60;;;29.30;99.90;;;;;;4982570;28;20184;-73
2022/09/15 12:21:16;;;;;;;15.77;2.92;;;29.30;99.90;;;;;;5019776;28;20222;-73
2022/09/15 12:24:08;;;;;;;11.60;2.95;;;29.20;99.90;;;;;;5000604;28;20263;-73
2022/09/15 12:26:35;;;;;;;79.13;6.05;;;29.20;99.90;;;;;;5000844;28;20562;-73
2022/09/15 12:29:21;;;;;;;9.02;2.58;;;29.10;99.90;;;;;;4990216;28;20181;-73
2022/09/15 12:31:47;;;;;;;7.75;3.05;;;29.10;99.90;;;;;;5005889;28;20188;-72
2022/09/15 12:34:35;;;;;;;11.45;3.40;;;28.90;99.90;;;;;;5009129;28;20311;-73
2022/09/15 12:37:14;;;;;;;7.70;2.83;;;29.00;99.90;;;;;;4981738;28;20200;-72
2022/09/15 12:39:46;;;;;;;7.55;3.20;;;29.10;99.90;;;;;;5003071;28;20704;-72
2022/09/15 12:42:30;;;;;;;6.68;2.65;;;29.00;99.90;;;;;;5004822;28;20217;-73
2022/09/15 12:45:37;;;;;;;8.80;2.78;;;29.00;99.90;;;;;;5009336;28;20249;-73
2022/09/15 12:48:31;;;;;;;9.80;2.55;;;28.90;99.90;;;;;;4950725;28;20192;-72
2022/09/15 12:51:09;;;;;;;11.18;3.15;;;28.80;99.90;;;;;;4993919;28;20235;-72
2022/09/15 12:53:54;;;;;;;9.02;2.85;;;28.90;99.90;;;;;;5005894;28;20672;-73
2022/09/15 12:56:30;;;;;;;9.80;2.70;;;28.70;99.90;;;;;;4987570;28;20193;-73
2022/09/15 12:59:10;;;;;;;7.15;3.25;;;28.80;99.90;;;;;;5009931;28;20181;-72
2022/09/15 13:01:49;;;;;;;4.53;2.63;;;28.90;99.90;;;;;;4978505;28;20288;-73
2022/09/15 13:04:40;;;;;;;20.38;3.45;;;28.70;99.90;;;;;;4994121;28;20208;-73
2022/09/15 13:07:18;;;;;;;6.40;2.63;;;28.70;99.90;;;;;;4994146;28;20675;-73
2022/09/15 13:10:12;;;;;;;7.10;3.00;;;28.70;99.90;;;;;;4993810;28;20211;-73
2022/09/15 13:12:52;;;;;;;11.23;3.20;;;28.60;99.90;;;;;;5011190;28;20193;-73
2022/09/15 13:15:22;;;;;;;6.53;2.78;;;28.60;99.90;;;;;;4994282;28;20189;-72
2022/09/15 13:17:50;;;;;;;10.10;3.13;;;28.60;99.90;;;;;;4989712;28;20516;-70
2022/09/15 13:20:25;;;;;;;9.82;2.78;;;28.50;99.90;;;;;;5001613;28;20192;-72
2022/09/15 13:22:55;;;;;;;8.70;3.38;;;28.50;99.90;;;;;;4976381;28;20213;-72
2022/09/15 13:25:29;;;;;;;6.53;3.03;;;28.40;99.90;;;;;;4993142;28;20199;-70
2022/09/15 13:28:00;;;;;;;5.82;2.88;;;28.40;99.90;;;;;;4968312;28;20182;-71
2022/09/15 13:31:21;;;;;;;8.32;2.90;;;28.40;99.90;;;;;;4982482;28;20189;-69
2022/09/15 13:34:11;;;;;;;8.60;3.13;;;28.30;99.90;;;;;;5015607;28;20193;-71